sensor_id;sensor_type;location;lat;lon;timestamp;P1;durP1;ratioP1;P2;durP2;ratioP2
17197;SDS011;8715;51.010;6.812;2022-10-31T00:00:39;476.13;;;455.60;;
17197;SDS011;8715;51.010;6.812;2022-10-31T00:03:05;481.08;;;460.50;;
17197;SDS011;8715;51.010;6.812;2022-10-31T00:05:31;481.10;;;460.80;;
17197;SDS011;8715;51.010;6.812;2022-10-31T00:07:56;482.53;;;460.20;;
17197;SDS011;8715;51.010;6.812;2022-10-31T00:10:21;491.10;;;469.90;;
17197;SDS011;8715;51.010;6.812;2022-10-31T00:12:47;533.87;;;511.73;;
17197;SDS011;8715;51.010;6.812;2022-10-31T00:15:12;477.85;;;456.85;;
17197;SDS011;8715;51.010;6.812;2022-10-31T00:17:37;464.75;;;444.55;;
17197;SDS011;8715;51.010;6.812;2022-10-31T00:20:03;497.17;;;475.83;;
17197;SDS011;8715;51.010;6.812;2022-10-31T00:22:28;480.40;;;459.02;;
17197;SDS011;8715;51.010;6.812;2022-10-31T00:24:54;488.87;;;468.47;;
17197;SDS011;8715;51.010;6.812;2022-10-31T00:27:19;480.77;;;459.70;;
17197;SDS011;8715;51.010;6.812;2022-10-31T00:29:44;484.43;;;463.67;;
17197;SDS011;8715;51.010;6.812;2022-10-31T00:32:15;476.90;;;456.53;;
17197;SDS011;8715;51.010;6.812;2022-10-31T00:34:40;474.38;;;453.38;;
17197;SDS011;8715;51.010;6.812;2022-10-31T00:37:06;470.63;;;450.00;;
17197;SDS011;8715;51.010;6.812;2022-10-31T00:39:31;494.63;;;473.53;;
17197;SDS011;8715;51.010;6.812;2022-10-31T00:41:56;492.13;;;470.70;;
17197;SDS011;8715;51.010;6.812;2022-10-31T00:44:22;471.63;;;451.17;;
17197;SDS011;8715;51.010;6.812;2022-10-31T00:46:47;479.60;;;459.67;;
17197;SDS011;8715;51.010;6.812;2022-10-31T00:49:13;481.52;;;461.40;;
17197;SDS011;8715;51.010;6.812;2022-10-31T00:51:38;479.73;;;458.73;;
17197;SDS011;8715;51.010;6.812;2022-10-31T00:54:03;487.80;;;466.87;;
17197;SDS011;8715;51.010;6.812;2022-10-31T00:56:29;467.60;;;447.27;;
17197;SDS011;8715;51.010;6.812;2022-10-31T00:58:54;470.83;;;450.87;;
17197;SDS011;8715;51.010;6.812;2022-10-31T01:01:19;483.67;;;463.33;;
17197;SDS011;8715;51.010;6.812;2022-10-31T01:03:45;468.92;;;448.42;;
17197;SDS011;8715;51.010;6.812;2022-10-31T01:06:11;476.57;;;454.87;;
17197;SDS011;8715;51.010;6.812;2022-10-31T01:08:40;466.33;;;446.02;;
17197;SDS011;8715;51.010;6.812;2022-10-31T01:13:30;471.33;;;450.67;;
17197;SDS011;8715;51.010;6.812;2022-10-31T01:15:56;469.15;;;448.05;;
17197;SDS011;8715;51.010;6.812;2022-10-31T01:18:22;476.95;;;456.23;;
17197;SDS011;8715;51.010;6.812;2022-10-31T01:20:56;470.63;;;450.25;;
17197;SDS011;8715;51.010;6.812;2022-10-31T01:23:35;467.23;;;447.05;;
17197;SDS011;8715;51.010;6.812;2022-10-31T01:26:11;480.23;;;459.45;;
17197;SDS011;8715;51.010;6.812;2022-10-31T01:28:39;533.00;;;510.08;;
17197;SDS011;8715;51.010;6.812;2022-10-31T01:31:09;468.95;;;447.65;;
17197;SDS011;8715;51.010;6.812;2022-10-31T01:33:34;461.52;;;440.88;;
17197;SDS011;8715;51.010;6.812;2022-10-31T01:36:00;481.08;;;459.75;;
17197;SDS011;8715;51.010;6.812;2022-10-31T01:38:28;472.17;;;450.65;;
17197;SDS011;8715;51.010;6.812;2022-10-31T01:40:53;457.88;;;438.02;;
17197;SDS011;8715;51.010;6.812;2022-10-31T01:43:19;451.67;;;432.00;;
17197;SDS011;8715;51.010;6.812;2022-10-31T01:45:46;464.08;;;443.27;;
17197;SDS011;8715;51.010;6.812;2022-10-31T01:48:16;447.73;;;427.95;;
17197;SDS011;8715;51.010;6.812;2022-10-31T01:50:45;479.67;;;459.20;;
17197;SDS011;8715;51.010;6.812;2022-10-31T01:53:12;442.77;;;423.48;;
17197;SDS011;8715;51.010;6.812;2022-10-31T01:55:41;472.75;;;451.98;;
17197;SDS011;8715;51.010;6.812;2022-10-31T01:58:13;465.08;;;444.85;;
17197;SDS011;8715;51.010;6.812;2022-10-31T02:00:41;465.83;;;444.73;;
17197;SDS011;8715;51.010;6.812;2022-10-31T02:03:09;466.10;;;444.50;;
17197;SDS011;8715;51.010;6.812;2022-10-31T02:05:34;457.13;;;436.85;;
17197;SDS011;8715;51.010;6.812;2022-10-31T02:08:20;453.08;;;433.70;;
17197;SDS011;8715;51.010;6.812;2022-10-31T02:10:50;458.70;;;438.70;;
17197;SDS011;8715;51.010;6.812;2022-10-31T02:13:15;465.27;;;445.23;;
17197;SDS011;8715;51.010;6.812;2022-10-31T02:15:41;465.20;;;444.85;;
17197;SDS011;8715;51.010;6.812;2022-10-31T02:18:07;451.75;;;431.85;;
17197;SDS011;8715;51.010;6.812;2022-10-31T02:20:42;449.88;;;429.42;;
17197;SDS011;8715;51.010;6.812;2022-10-31T02:23:18;444.75;;;425.25;;
17197;SDS011;8715;51.010;6.812;2022-10-31T02:26:07;444.75;;;425.02;;
17197;SDS011;8715;51.010;6.812;2022-10-31T02:28:45;439.63;;;420.05;;
17197;SDS011;8715;51.010;6.812;2022-10-31T02:39:24;511.13;;;489.08;;
17197;SDS011;8715;51.010;6.812;2022-10-31T02:42:01;460.95;;;440.67;;
17197;SDS011;8715;51.010;6.812;2022-10-31T02:44:36;432.50;;;413.25;;
17197;SDS011;8715;51.010;6.812;2022-10-31T02:47:14;444.13;;;424.65;;
17197;SDS011;8715;51.010;6.812;2022-10-31T02:52:44;416.83;;;398.27;;
17197;SDS011;8715;51.010;6.812;2022-10-31T02:57:56;436.83;;;417.73;;
17197;SDS011;8715;51.010;6.812;2022-10-31T03:00:25;456.40;;;436.05;;
17197;SDS011;8715;51.010;6.812;2022-10-31T03:02:53;449.08;;;429.33;;
17197;SDS011;8715;51.010;6.812;2022-10-31T03:05:23;439.67;;;420.20;;
17197;SDS011;8715;51.010;6.812;2022-10-31T03:10:27;432.13;;;413.27;;
17197;SDS011;8715;51.010;6.812;2022-10-31T03:13:13;420.30;;;401.63;;
17197;SDS011;8715;51.010;6.812;2022-10-31T03:15:44;422.60;;;403.67;;
17197;SDS011;8715;51.010;6.812;2022-10-31T03:18:14;437.38;;;417.48;;
17197;SDS011;8715;51.010;6.812;2022-10-31T03:20:58;425.55;;;406.98;;
17197;SDS011;8715;51.010;6.812;2022-10-31T03:23:33;415.95;;;396.88;;
17197;SDS011;8715;51.010;6.812;2022-10-31T03:26:00;431.48;;;412.38;;
17197;SDS011;8715;51.010;6.812;2022-10-31T03:28:28;446.90;;;425.55;;
17197;SDS011;8715;51.010;6.812;2022-10-31T03:30:55;439.75;;;420.23;;
17197;SDS011;8715;51.010;6.812;2022-10-31T03:33:22;431.88;;;412.63;;
17197;SDS011;8715;51.010;6.812;2022-10-31T03:35:51;440.38;;;420.70;;
17197;SDS011;8715;51.010;6.812;2022-10-31T03:38:17;428.60;;;410.05;;
17197;SDS011;8715;51.010;6.812;2022-10-31T03:40:44;414.15;;;395.88;;
17197;SDS011;8715;51.010;6.812;2022-10-31T03:43:12;423.83;;;405.00;;
17197;SDS011;8715;51.010;6.812;2022-10-31T03:45:43;427.85;;;408.60;;
17197;SDS011;8715;51.010;6.812;2022-10-31T03:48:10;434.13;;;415.27;;
17197;SDS011;8715;51.010;6.812;2022-10-31T03:50:47;429.38;;;409.40;;
17197;SDS011;8715;51.010;6.812;2022-10-31T03:53:25;444.63;;;424.25;;
17197;SDS011;8715;51.010;6.812;2022-10-31T03:59:10;422.75;;;404.02;;
17197;SDS011;8715;51.010;6.812;2022-10-31T04:01:40;424.55;;;405.10;;
17197;SDS011;8715;51.010;6.812;2022-10-31T04:04:08;420.95;;;401.38;;
17197;SDS011;8715;51.010;6.812;2022-10-31T04:06:34;429.50;;;407.85;;
17197;SDS011;8715;51.010;6.812;2022-10-31T04:09:01;419.52;;;399.23;;
17197;SDS011;8715;51.010;6.812;2022-10-31T04:11:30;408.05;;;389.17;;
17197;SDS011;8715;51.010;6.812;2022-10-31T04:16:25;407.00;;;387.23;;
17197;SDS011;8715;51.010;6.812;2022-10-31T04:18:51;417.08;;;397.52;;
17197;SDS011;8715;51.010;6.812;2022-10-31T04:21:16;414.08;;;395.05;;
17197;SDS011;8715;51.010;6.812;2022-10-31T04:23:41;424.50;;;404.95;;
17197;SDS011;8715;51.010;6.812;2022-10-31T04:26:07;419.98;;;400.63;;
17197;SDS011;8715;51.010;6.812;2022-10-31T04:28:33;425.20;;;404.77;;
17197;SDS011;8715;51.010;6.812;2022-10-31T04:30:58;421.95;;;403.35;;
17197;SDS011;8715;51.010;6.812;2022-10-31T04:33:24;424.17;;;404.83;;
17197;SDS011;8715;51.010;6.812;2022-10-31T04:35:49;402.50;;;383.93;;
17197;SDS011;8715;51.010;6.812;2022-10-31T04:38:14;417.48;;;398.70;;
17197;SDS011;8715;51.010;6.812;2022-10-31T04:40:40;433.20;;;413.27;;
17197;SDS011;8715;51.010;6.812;2022-10-31T04:43:05;412.15;;;393.17;;
17197;SDS011;8715;51.010;6.812;2022-10-31T04:45:30;413.17;;;394.20;;
17197;SDS011;8715;51.010;6.812;2022-10-31T04:47:56;423.97;;;403.67;;
17197;SDS011;8715;51.010;6.812;2022-10-31T04:50:21;444.47;;;423.90;;
17197;SDS011;8715;51.010;6.812;2022-10-31T04:52:46;429.30;;;410.23;;
17197;SDS011;8715;51.010;6.812;2022-10-31T04:55:12;432.90;;;412.90;;
17197;SDS011;8715;51.010;6.812;2022-10-31T04:57:41;419.38;;;399.80;;
17197;SDS011;8715;51.010;6.812;2022-10-31T05:02:33;394.40;;;375.60;;
17197;SDS011;8715;51.010;6.812;2022-10-31T05:04:59;399.30;;;380.43;;
17197;SDS011;8715;51.010;6.812;2022-10-31T05:07:24;401.77;;;383.23;;
17197;SDS011;8715;51.010;6.812;2022-10-31T05:09:49;414.60;;;395.37;;
17197;SDS011;8715;51.010;6.812;2022-10-31T05:12:15;427.47;;;407.47;;
17197;SDS011;8715;51.010;6.812;2022-10-31T05:14:40;432.17;;;412.17;;
17197;SDS011;8715;51.010;6.812;2022-10-31T05:17:05;423.55;;;403.85;;
17197;SDS011;8715;51.010;6.812;2022-10-31T05:19:31;427.50;;;408.10;;
17197;SDS011;8715;51.010;6.812;2022-10-31T05:21:56;426.17;;;407.03;;
17197;SDS011;8715;51.010;6.812;2022-10-31T05:24:21;425.77;;;406.17;;
17197;SDS011;8715;51.010;6.812;2022-10-31T05:26:47;446.03;;;425.10;;
17197;SDS011;8715;51.010;6.812;2022-10-31T05:29:13;425.92;;;406.48;;
17197;SDS011;8715;51.010;6.812;2022-10-31T05:31:38;424.97;;;405.27;;
17197;SDS011;8715;51.010;6.812;2022-10-31T05:34:04;438.83;;;418.88;;
17197;SDS011;8715;51.010;6.812;2022-10-31T05:36:29;443.00;;;421.85;;
17197;SDS011;8715;51.010;6.812;2022-10-31T05:38:54;435.70;;;416.17;;
17197;SDS011;8715;51.010;6.812;2022-10-31T05:41:20;414.80;;;396.42;;
17197;SDS011;8715;51.010;6.812;2022-10-31T05:43:45;448.80;;;428.40;;
17197;SDS011;8715;51.010;6.812;2022-10-31T05:46:10;421.77;;;402.07;;
17197;SDS011;8715;51.010;6.812;2022-10-31T05:48:36;442.57;;;422.03;;
17197;SDS011;8715;51.010;6.812;2022-10-31T05:51:01;432.00;;;412.03;;
17197;SDS011;8715;51.010;6.812;2022-10-31T05:53:26;410.63;;;390.97;;
17197;SDS011;8715;51.010;6.812;2022-10-31T05:55:52;441.23;;;421.60;;
17197;SDS011;8715;51.010;6.812;2022-10-31T05:58:17;408.50;;;389.57;;
17197;SDS011;8715;51.010;6.812;2022-10-31T06:00:42;419.17;;;400.00;;
17197;SDS011;8715;51.010;6.812;2022-10-31T06:03:08;431.33;;;411.43;;
17197;SDS011;8715;51.010;6.812;2022-10-31T06:05:34;428.27;;;407.48;;
17197;SDS011;8715;51.010;6.812;2022-10-31T06:07:59;446.88;;;427.02;;
17197;SDS011;8715;51.010;6.812;2022-10-31T06:10:25;416.42;;;397.25;;
17197;SDS011;8715;51.010;6.812;2022-10-31T06:12:51;420.33;;;400.73;;
17197;SDS011;8715;51.010;6.812;2022-10-31T06:15:16;421.17;;;401.80;;
17197;SDS011;8715;51.010;6.812;2022-10-31T06:17:42;436.77;;;416.83;;
17197;SDS011;8715;51.010;6.812;2022-10-31T06:20:08;418.90;;;399.92;;
17197;SDS011;8715;51.010;6.812;2022-10-31T06:22:33;428.38;;;408.40;;
17197;SDS011;8715;51.010;6.812;2022-10-31T06:24:59;421.30;;;401.63;;
17197;SDS011;8715;51.010;6.812;2022-10-31T06:27:25;410.73;;;391.63;;
17197;SDS011;8715;51.010;6.812;2022-10-31T06:29:51;403.65;;;385.30;;
17197;SDS011;8715;51.010;6.812;2022-10-31T06:32:16;419.63;;;399.80;;
17197;SDS011;8715;51.010;6.812;2022-10-31T06:34:42;438.73;;;418.02;;
17197;SDS011;8715;51.010;6.812;2022-10-31T06:37:09;435.75;;;414.38;;
17197;SDS011;8715;51.010;6.812;2022-10-31T06:39:36;441.83;;;421.05;;
17197;SDS011;8715;51.010;6.812;2022-10-31T06:42:01;437.95;;;418.05;;
17197;SDS011;8715;51.010;6.812;2022-10-31T06:44:27;433.05;;;412.58;;
17197;SDS011;8715;51.010;6.812;2022-10-31T06:46:53;421.98;;;400.83;;
17197;SDS011;8715;51.010;6.812;2022-10-31T06:49:18;426.75;;;406.90;;
17197;SDS011;8715;51.010;6.812;2022-10-31T06:51:46;434.00;;;413.80;;
17197;SDS011;8715;51.010;6.812;2022-10-31T06:54:12;450.20;;;429.05;;
17197;SDS011;8715;51.010;6.812;2022-10-31T06:56:38;435.23;;;414.30;;
17197;SDS011;8715;51.010;6.812;2022-10-31T06:59:03;439.35;;;418.33;;
17197;SDS011;8715;51.010;6.812;2022-10-31T07:01:29;420.17;;;400.63;;
17197;SDS011;8715;51.010;6.812;2022-10-31T07:03:54;423.65;;;404.13;;
17197;SDS011;8715;51.010;6.812;2022-10-31T07:06:19;442.43;;;422.47;;
17197;SDS011;8715;51.010;6.812;2022-10-31T07:08:45;433.52;;;413.52;;
17197;SDS011;8715;51.010;6.812;2022-10-31T07:11:10;431.77;;;412.00;;
17197;SDS011;8715;51.010;6.812;2022-10-31T07:13:35;458.20;;;437.15;;
17197;SDS011;8715;51.010;6.812;2022-10-31T07:16:02;441.52;;;421.13;;
17197;SDS011;8715;51.010;6.812;2022-10-31T07:18:29;446.25;;;425.67;;
17197;SDS011;8715;51.010;6.812;2022-10-31T07:20:54;447.80;;;427.08;;
17197;SDS011;8715;51.010;6.812;2022-10-31T07:23:19;440.48;;;419.58;;
17197;SDS011;8715;51.010;6.812;2022-10-31T07:25:45;439.67;;;418.57;;
17197;SDS011;8715;51.010;6.812;2022-10-31T07:28:10;465.83;;;443.33;;
17197;SDS011;8715;51.010;6.812;2022-10-31T07:30:37;454.60;;;433.40;;
17197;SDS011;8715;51.010;6.812;2022-10-31T07:33:03;444.80;;;423.83;;
17197;SDS011;8715;51.010;6.812;2022-10-31T07:35:29;460.33;;;438.55;;
17197;SDS011;8715;51.010;6.812;2022-10-31T07:37:55;453.80;;;432.85;;
17197;SDS011;8715;51.010;6.812;2022-10-31T07:40:21;457.80;;;437.30;;
17197;SDS011;8715;51.010;6.812;2022-10-31T07:42:48;467.63;;;446.60;;
17197;SDS011;8715;51.010;6.812;2022-10-31T07:45:15;485.08;;;463.55;;
17197;SDS011;8715;51.010;6.812;2022-10-31T07:47:42;469.98;;;448.60;;
17197;SDS011;8715;51.010;6.812;2022-10-31T07:50:09;462.77;;;441.88;;
17197;SDS011;8715;51.010;6.812;2022-10-31T07:52:37;471.55;;;449.00;;
17197;SDS011;8715;51.010;6.812;2022-10-31T07:55:03;474.00;;;452.65;;
17197;SDS011;8715;51.010;6.812;2022-10-31T07:57:29;473.20;;;451.60;;
17197;SDS011;8715;51.010;6.812;2022-10-31T07:59:54;472.93;;;451.63;;
17197;SDS011;8715;51.010;6.812;2022-10-31T08:02:20;470.80;;;449.80;;
17197;SDS011;8715;51.010;6.812;2022-10-31T08:04:46;472.40;;;451.38;;
17197;SDS011;8715;51.010;6.812;2022-10-31T08:07:11;471.23;;;450.35;;
17197;SDS011;8715;51.010;6.812;2022-10-31T08:09:37;479.47;;;457.87;;
17197;SDS011;8715;51.010;6.812;2022-10-31T08:12:02;479.15;;;458.05;;
17197;SDS011;8715;51.010;6.812;2022-10-31T08:14:28;489.88;;;467.17;;
17197;SDS011;8715;51.010;6.812;2022-10-31T08:16:53;498.75;;;475.73;;
17197;SDS011;8715;51.010;6.812;2022-10-31T08:19:19;480.50;;;459.48;;
17197;SDS011;8715;51.010;6.812;2022-10-31T08:21:45;498.77;;;476.88;;
17197;SDS011;8715;51.010;6.812;2022-10-31T08:24:10;498.73;;;476.42;;
17197;SDS011;8715;51.010;6.812;2022-10-31T08:26:36;477.23;;;455.98;;
17197;SDS011;8715;51.010;6.812;2022-10-31T08:29:01;482.50;;;461.08;;
17197;SDS011;8715;51.010;6.812;2022-10-31T08:31:27;481.98;;;461.00;;
17197;SDS011;8715;51.010;6.812;2022-10-31T08:33:53;493.00;;;471.10;;
17197;SDS011;8715;51.010;6.812;2022-10-31T08:36:19;495.63;;;473.30;;
17197;SDS011;8715;51.010;6.812;2022-10-31T08:38:46;486.25;;;465.17;;
17197;SDS011;8715;51.010;6.812;2022-10-31T08:41:11;493.15;;;471.50;;
17197;SDS011;8715;51.010;6.812;2022-10-31T08:43:37;496.30;;;474.17;;
17197;SDS011;8715;51.010;6.812;2022-10-31T08:46:02;493.42;;;471.75;;
17197;SDS011;8715;51.010;6.812;2022-10-31T08:48:28;500.77;;;478.52;;
17197;SDS011;8715;51.010;6.812;2022-10-31T08:50:55;501.33;;;479.33;;
17197;SDS011;8715;51.010;6.812;2022-10-31T08:53:22;508.65;;;487.05;;
17197;SDS011;8715;51.010;6.812;2022-10-31T08:55:48;509.15;;;486.75;;
17197;SDS011;8715;51.010;6.812;2022-10-31T08:58:15;524.63;;;501.90;;
17197;SDS011;8715;51.010;6.812;2022-10-31T09:00:42;504.75;;;482.52;;
17197;SDS011;8715;51.010;6.812;2022-10-31T09:03:11;526.45;;;503.85;;
17197;SDS011;8715;51.010;6.812;2022-10-31T09:05:38;534.20;;;511.05;;
17197;SDS011;8715;51.010;6.812;2022-10-31T09:08:04;514.38;;;491.98;;
17197;SDS011;8715;51.010;6.812;2022-10-31T09:10:30;519.15;;;496.05;;
17197;SDS011;8715;51.010;6.812;2022-10-31T09:15:22;527.25;;;504.50;;
17197;SDS011;8715;51.010;6.812;2022-10-31T09:17:48;503.27;;;481.08;;
17197;SDS011;8715;51.010;6.812;2022-10-31T09:20:13;531.95;;;509.23;;
17197;SDS011;8715;51.010;6.812;2022-10-31T09:22:39;542.42;;;518.40;;
17197;SDS011;8715;51.010;6.812;2022-10-31T09:25:04;521.60;;;499.07;;
17197;SDS011;8715;51.010;6.812;2022-10-31T09:27:30;528.15;;;505.15;;
17197;SDS011;8715;51.010;6.812;2022-10-31T09:29:55;531.05;;;507.73;;
17197;SDS011;8715;51.010;6.812;2022-10-31T09:32:20;515.20;;;492.60;;
17197;SDS011;8715;51.010;6.812;2022-10-31T09:34:46;538.22;;;515.10;;
17197;SDS011;8715;51.010;6.812;2022-10-31T09:37:11;543.80;;;518.63;;
17197;SDS011;8715;51.010;6.812;2022-10-31T09:39:37;549.08;;;525.33;;
17197;SDS011;8715;51.010;6.812;2022-10-31T09:44:45;543.42;;;519.78;;
17197;SDS011;8715;51.010;6.812;2022-10-31T09:50:24;553.13;;;528.72;;
17197;SDS011;8715;51.010;6.812;2022-10-31T09:52:54;555.45;;;532.30;;
17197;SDS011;8715;51.010;6.812;2022-10-31T09:55:45;553.38;;;529.47;;
17197;SDS011;8715;51.010;6.812;2022-10-31T09:58:24;542.40;;;519.35;;
17197;SDS011;8715;51.010;6.812;2022-10-31T10:00:51;549.58;;;525.58;;
17197;SDS011;8715;51.010;6.812;2022-10-31T10:03:28;552.08;;;528.22;;
17197;SDS011;8715;51.010;6.812;2022-10-31T10:06:00;565.85;;;540.85;;
17197;SDS011;8715;51.010;6.812;2022-10-31T10:08:46;555.03;;;530.55;;
17197;SDS011;8715;51.010;6.812;2022-10-31T10:33:12;556.15;;;530.45;;
17197;SDS011;8715;51.010;6.812;2022-10-31T10:35:47;552.92;;;529.05;;
17197;SDS011;8715;51.010;6.812;2022-10-31T10:40:59;556.03;;;531.78;;
17197;SDS011;8715;51.010;6.812;2022-10-31T10:43:34;573.30;;;548.78;;
17197;SDS011;8715;51.010;6.812;2022-10-31T10:48:52;569.40;;;545.30;;
17197;SDS011;8715;51.010;6.812;2022-10-31T10:51:46;591.00;;;565.20;;
17197;SDS011;8715;51.010;6.812;2022-10-31T11:00:21;583.15;;;557.65;;
17197;SDS011;8715;51.010;6.812;2022-10-31T11:03:01;587.40;;;561.78;;
17197;SDS011;8715;51.010;6.812;2022-10-31T11:05:37;590.15;;;564.30;;
17197;SDS011;8715;51.010;6.812;2022-10-31T11:08:05;587.15;;;561.53;;
17197;SDS011;8715;51.010;6.812;2022-10-31T11:10:30;643.08;;;615.40;;
17197;SDS011;8715;51.010;6.812;2022-10-31T11:13:04;592.28;;;566.63;;
17197;SDS011;8715;51.010;6.812;2022-10-31T11:15:31;606.00;;;580.38;;
17197;SDS011;8715;51.010;6.812;2022-10-31T11:17:59;602.15;;;576.08;;
17197;SDS011;8715;51.010;6.812;2022-10-31T11:20:27;600.53;;;574.70;;
17197;SDS011;8715;51.010;6.812;2022-10-31T11:25:47;613.78;;;587.58;;
17197;SDS011;8715;51.010;6.812;2022-10-31T11:28:33;607.42;;;580.97;;
17197;SDS011;8715;51.010;6.812;2022-10-31T11:31:08;606.97;;;580.63;;
17197;SDS011;8715;51.010;6.812;2022-10-31T11:33:39;611.85;;;585.83;;
17197;SDS011;8715;51.010;6.812;2022-10-31T11:36:27;630.88;;;603.65;;
17197;SDS011;8715;51.010;6.812;2022-10-31T11:38:55;614.97;;;588.83;;
17197;SDS011;8715;51.010;6.812;2022-10-31T11:43:50;611.13;;;585.00;;
17197;SDS011;8715;51.010;6.812;2022-10-31T11:46:28;620.55;;;593.53;;
17197;SDS011;8715;51.010;6.812;2022-10-31T11:48:58;615.67;;;589.35;;
17197;SDS011;8715;51.010;6.812;2022-10-31T11:51:24;620.80;;;594.42;;
17197;SDS011;8715;51.010;6.812;2022-10-31T11:53:52;616.90;;;590.45;;
17197;SDS011;8715;51.010;6.812;2022-10-31T11:56:19;620.10;;;593.38;;
17197;SDS011;8715;51.010;6.812;2022-10-31T11:58:54;620.88;;;594.72;;
17197;SDS011;8715;51.010;6.812;2022-10-31T12:01:40;610.95;;;584.28;;
17197;SDS011;8715;51.010;6.812;2022-10-31T12:04:12;607.80;;;582.08;;
17197;SDS011;8715;51.010;6.812;2022-10-31T12:06:41;619.33;;;592.45;;
17197;SDS011;8715;51.010;6.812;2022-10-31T12:09:21;613.85;;;587.35;;
17197;SDS011;8715;51.010;6.812;2022-10-31T12:17:00;611.13;;;584.78;;
17197;SDS011;8715;51.010;6.812;2022-10-31T12:25:09;610.92;;;584.75;;
17197;SDS011;8715;51.010;6.812;2022-10-31T12:30:10;611.92;;;586.00;;
17197;SDS011;8715;51.010;6.812;2022-10-31T12:41:51;616.08;;;589.72;;
17197;SDS011;8715;51.010;6.812;2022-10-31T12:49:25;620.05;;;593.15;;
17197;SDS011;8715;51.010;6.812;2022-10-31T12:52:06;619.10;;;592.55;;
17197;SDS011;8715;51.010;6.812;2022-10-31T12:54:57;606.90;;;580.92;;
17197;SDS011;8715;51.010;6.812;2022-10-31T12:57:39;607.90;;;581.78;;
17197;SDS011;8715;51.010;6.812;2022-10-31T13:00:14;610.78;;;584.20;;
17197;SDS011;8715;51.010;6.812;2022-10-31T13:05:44;605.53;;;579.95;;
17197;SDS011;8715;51.010;6.812;2022-10-31T13:10:45;619.42;;;592.72;;
17197;SDS011;8715;51.010;6.812;2022-10-31T13:16:18;612.72;;;587.30;;
17197;SDS011;8715;51.010;6.812;2022-10-31T13:18:47;616.00;;;589.45;;
17197;SDS011;8715;51.010;6.812;2022-10-31T13:21:20;603.75;;;577.67;;
17197;SDS011;8715;51.010;6.812;2022-10-31T13:23:48;623.78;;;597.20;;
17197;SDS011;8715;51.010;6.812;2022-10-31T13:26:18;611.20;;;585.08;;
17197;SDS011;8715;51.010;6.812;2022-10-31T13:29:10;620.58;;;594.65;;
17197;SDS011;8715;51.010;6.812;2022-10-31T13:31:40;607.53;;;581.65;;
17197;SDS011;8715;51.010;6.812;2022-10-31T13:34:09;614.47;;;588.28;;
17197;SDS011;8715;51.010;6.812;2022-10-31T13:36:50;656.20;;;628.65;;
17197;SDS011;8715;51.010;6.812;2022-10-31T13:42:25;615.38;;;588.72;;
17197;SDS011;8715;51.010;6.812;2022-10-31T13:45:06;612.00;;;585.65;;
17197;SDS011;8715;51.010;6.812;2022-10-31T13:47:36;622.33;;;594.70;;
17197;SDS011;8715;51.010;6.812;2022-10-31T13:50:05;611.53;;;585.33;;
17197;SDS011;8715;51.010;6.812;2022-10-31T13:52:44;620.72;;;592.63;;
17197;SDS011;8715;51.010;6.812;2022-10-31T13:58:25;614.65;;;588.75;;
17197;SDS011;8715;51.010;6.812;2022-10-31T14:01:25;619.22;;;593.28;;
17197;SDS011;8715;51.010;6.812;2022-10-31T14:03:47;620.42;;;593.88;;
17197;SDS011;8715;51.010;6.812;2022-10-31T14:06:23;610.70;;;584.72;;
17197;SDS011;8715;51.010;6.812;2022-10-31T14:09:03;609.38;;;583.30;;
17197;SDS011;8715;51.010;6.812;2022-10-31T14:11:29;616.00;;;589.55;;
17197;SDS011;8715;51.010;6.812;2022-10-31T14:13:55;611.22;;;584.88;;
17197;SDS011;8715;51.010;6.812;2022-10-31T14:21:27;607.35;;;581.17;;
17197;SDS011;8715;51.010;6.812;2022-10-31T14:23:54;605.00;;;579.28;;
17197;SDS011;8715;51.010;6.812;2022-10-31T14:28:59;614.13;;;588.42;;
17197;SDS011;8715;51.010;6.812;2022-10-31T14:42:06;616.90;;;589.80;;
17197;SDS011;8715;51.010;6.812;2022-10-31T14:44:50;605.45;;;578.95;;
17197;SDS011;8715;51.010;6.812;2022-10-31T14:47:45;615.53;;;587.92;;
17197;SDS011;8715;51.010;6.812;2022-10-31T14:53:30;647.00;;;618.78;;
17197;SDS011;8715;51.010;6.812;2022-10-31T14:55:58;604.50;;;578.80;;
17197;SDS011;8715;51.010;6.812;2022-10-31T14:58:26;607.03;;;581.35;;
17197;SDS011;8715;51.010;6.812;2022-10-31T15:00:58;598.95;;;573.08;;
17197;SDS011;8715;51.010;6.812;2022-10-31T15:03:26;595.85;;;570.63;;
17197;SDS011;8715;51.010;6.812;2022-10-31T15:05:56;599.65;;;574.88;;
17197;SDS011;8715;51.010;6.812;2022-10-31T15:11:22;604.65;;;578.78;;
17197;SDS011;8715;51.010;6.812;2022-10-31T15:13:53;602.63;;;576.92;;
17197;SDS011;8715;51.010;6.812;2022-10-31T15:16:33;606.20;;;580.78;;
17197;SDS011;8715;51.010;6.812;2022-10-31T15:19:04;606.63;;;581.30;;
17197;SDS011;8715;51.010;6.812;2022-10-31T15:21:31;592.80;;;567.63;;
17197;SDS011;8715;51.010;6.812;2022-10-31T15:23:57;606.70;;;581.70;;
17197;SDS011;8715;51.010;6.812;2022-10-31T15:26:26;601.45;;;576.10;;
17197;SDS011;8715;51.010;6.812;2022-10-31T15:31:51;600.40;;;574.58;;
17197;SDS011;8715;51.010;6.812;2022-10-31T15:34:38;595.30;;;570.05;;
17197;SDS011;8715;51.010;6.812;2022-10-31T15:37:10;600.30;;;574.90;;
17197;SDS011;8715;51.010;6.812;2022-10-31T15:39:37;592.55;;;567.72;;
17197;SDS011;8715;51.010;6.812;2022-10-31T15:42:02;600.17;;;574.50;;
17197;SDS011;8715;51.010;6.812;2022-10-31T15:44:28;599.03;;;573.58;;
17197;SDS011;8715;51.010;6.812;2022-10-31T15:46:57;599.83;;;574.15;;
17197;SDS011;8715;51.010;6.812;2022-10-31T15:49:36;599.97;;;574.05;;
17197;SDS011;8715;51.010;6.812;2022-10-31T15:52:07;603.25;;;577.50;;
17197;SDS011;8715;51.010;6.812;2022-10-31T15:54:40;605.97;;;580.08;;
17197;SDS011;8715;51.010;6.812;2022-10-31T15:57:10;596.97;;;571.78;;
17197;SDS011;8715;51.010;6.812;2022-10-31T15:59:36;601.03;;;575.75;;
17197;SDS011;8715;51.010;6.812;2022-10-31T16:02:02;593.05;;;567.80;;
17197;SDS011;8715;51.010;6.812;2022-10-31T16:04:32;590.90;;;565.83;;
17197;SDS011;8715;51.010;6.812;2022-10-31T16:06:58;593.30;;;568.17;;
17197;SDS011;8715;51.010;6.812;2022-10-31T16:09:28;594.65;;;569.50;;
17197;SDS011;8715;51.010;6.812;2022-10-31T16:11:55;587.63;;;563.13;;
17197;SDS011;8715;51.010;6.812;2022-10-31T16:14:23;593.45;;;568.15;;
17197;SDS011;8715;51.010;6.812;2022-10-31T16:16:52;598.30;;;573.22;;
17197;SDS011;8715;51.010;6.812;2022-10-31T16:19:27;600.40;;;574.78;;
17197;SDS011;8715;51.010;6.812;2022-10-31T16:22:08;589.00;;;564.15;;
17197;SDS011;8715;51.010;6.812;2022-10-31T16:24:53;579.50;;;555.22;;
17197;SDS011;8715;51.010;6.812;2022-10-31T16:27:25;592.92;;;567.88;;
17197;SDS011;8715;51.010;6.812;2022-10-31T16:29:54;588.55;;;563.65;;
17197;SDS011;8715;51.010;6.812;2022-10-31T16:32:50;585.22;;;560.22;;
17197;SDS011;8715;51.010;6.812;2022-10-31T16:37:53;578.13;;;552.45;;
17197;SDS011;8715;51.010;6.812;2022-10-31T16:40:19;579.90;;;555.88;;
17197;SDS011;8715;51.010;6.812;2022-10-31T16:42:45;580.25;;;556.00;;
17197;SDS011;8715;51.010;6.812;2022-10-31T16:45:18;589.25;;;564.63;;